createdAt,value
2022-08-07T00:00:36.191Z,12.40
2022-08-07T00:03:07.347Z,12.40
2022-08-07T00:05:36.319Z,12.40
2022-08-07T00:08:04.702Z,12.30
2022-08-07T00:10:31.712Z,12.40
2022-08-07T00:13:01.408Z,12.40
2022-08-07T00:15:36.043Z,12.40
2022-08-07T00:18:19.389Z,12.40
2022-08-07T00:20:49.537Z,12.40
2022-08-07T00:23:16.973Z,12.40
2022-08-07T00:25:43.873Z,12.40
2022-08-07T00:28:18.829Z,12.30
2022-08-07T00:30:48.799Z,12.30
2022-08-07T00:33:15.734Z,12.40
2022-08-07T00:35:46.499Z,12.30
2022-08-07T00:38:16.244Z,12.30
2022-08-07T00:40:58.436Z,12.30
2022-08-07T00:44:02.024Z,12.30
2022-08-07T00:46:11.720Z,12.30
2022-08-07T00:48:41.974Z,12.30
2022-08-07T00:51:09.578Z,12.20
2022-08-07T00:53:39.298Z,12.10
2022-08-07T00:56:17.980Z,12.10
2022-08-07T00:58:46.940Z,12.10
2022-08-07T01:01:14.843Z,12.00
2022-08-07T01:03:55.332Z,12.00
2022-08-07T01:06:25.249Z,12.00
2022-08-07T01:08:53.263Z,12.00
2022-08-07T01:12:27.805Z,12.00
2022-08-07T01:14:08.102Z,12.10
2022-08-07T01:16:36.743Z,12.00
2022-08-07T01:19:04.476Z,12.00
2022-08-07T01:21:37.764Z,12.00
2022-08-07T01:24:05.709Z,12.00
2022-08-07T01:26:33.060Z,12.00
2022-08-07T01:29:00.103Z,12.00
2022-08-07T01:31:42.634Z,12.00
2022-08-07T01:34:15.084Z,12.00
2022-08-07T01:36:41.974Z,11.90
2022-08-07T01:39:11.376Z,12.00
2022-08-07T01:41:40.863Z,11.90
2022-08-07T01:44:26.127Z,11.90
2022-08-07T01:46:53.145Z,11.90
2022-08-07T01:49:21.474Z,11.90
2022-08-07T01:52:01.498Z,11.90
2022-08-07T01:54:37.099Z,12.00
2022-08-07T01:57:04.256Z,12.00
2022-08-07T01:59:46.172Z,12.00
2022-08-07T02:02:32.523Z,12.00
2022-08-07T02:05:16.123Z,12.00
2022-08-07T02:08:02.063Z,12.00
2022-08-07T02:10:29.498Z,11.90
2022-08-07T02:12:59.518Z,11.90
2022-08-07T02:15:28.002Z,11.90
2022-08-07T02:17:56.537Z,12.00
2022-08-07T02:20:24.481Z,12.00
2022-08-07T02:22:55.070Z,12.00
2022-08-07T02:26:10.341Z,12.10
2022-08-07T02:28:11.760Z,12.10
2022-08-07T02:30:39.429Z,12.30
2022-08-07T02:33:09.197Z,12.30
2022-08-07T02:36:29.286Z,12.40
2022-08-07T02:38:31.639Z,12.40
2022-08-07T02:41:00.566Z,12.40
2022-08-07T02:43:28.209Z,12.50
2022-08-07T02:46:00.764Z,12.60
2022-08-07T02:48:29.213Z,12.60
2022-08-07T02:50:56.873Z,12.70
2022-08-07T02:53:29.181Z,12.80
2022-08-07T02:56:03.730Z,12.80
2022-08-07T02:58:33.803Z,13.10
2022-08-07T03:01:01.720Z,13.10
2022-08-07T03:03:49.423Z,13.10
2022-08-07T03:06:26.279Z,13.10
2022-08-07T03:09:01.589Z,13.10
2022-08-07T03:11:28.525Z,13.10
2022-08-07T03:14:01.847Z,13.10
2022-08-07T03:16:30.800Z,13.20
2022-08-07T03:18:59.267Z,13.20
2022-08-07T03:21:26.788Z,13.30
2022-08-07T03:24:20.399Z,13.30
2022-08-07T03:26:58.056Z,13.20
2022-08-07T03:29:32.127Z,13.10
2022-08-07T03:32:02.713Z,13.00
2022-08-07T03:34:30.581Z,13.00
2022-08-07T03:36:59.796Z,12.90
2022-08-07T03:39:45.778Z,12.90
2022-08-07T03:42:23.309Z,13.00
2022-08-07T03:44:53.608Z,13.10
2022-08-07T03:47:24.525Z,13.10
2022-08-07T03:49:52.450Z,13.30
2022-08-07T03:52:26.183Z,13.40
2022-08-07T03:55:06.966Z,13.60
2022-08-07T03:58:34.862Z,13.70
2022-08-07T04:00:30.237Z,13.90
2022-08-07T04:02:59.013Z,14.00
2022-08-07T04:05:39.701Z,14.10
2022-08-07T04:08:11.905Z,14.20
2022-08-07T04:10:39.509Z,14.30
2022-08-07T04:13:15.413Z,14.30
2022-08-07T04:15:42.919Z,14.30
2022-08-07T04:18:56.178Z,14.30
2022-08-07T04:20:59.147Z,14.20
2022-08-07T04:23:43.471Z,14.20
2022-08-07T04:26:14.008Z,14.50
2022-08-07T04:28:44.219Z,14.90
2022-08-07T04:31:19.642Z,15.50
2022-08-07T04:33:47.328Z,16.20
2022-08-07T04:36:22.695Z,16.90
2022-08-07T04:38:52.982Z,17.20
2022-08-07T04:41:19.740Z,17.70
2022-08-07T04:44:12.056Z,18.50
2022-08-07T04:47:03.873Z,19.10
2022-08-07T04:49:57.807Z,19.50
2022-08-07T04:52:59.811Z,20.00
2022-08-07T04:58:11.901Z,20.50
2022-08-07T04:58:47.592Z,21.00
2022-08-07T05:01:31.457Z,21.40
2022-08-07T05:04:17.776Z,22.20
2022-08-07T05:06:59.106Z,22.80
2022-08-07T05:09:45.762Z,23.70
2022-08-07T05:12:27.158Z,24.10
2022-08-07T05:15:04.139Z,24.90
2022-08-07T05:17:52.969Z,24.60
2022-08-07T05:20:25.024Z,24.20
2022-08-07T05:22:54.733Z,24.70
2022-08-07T05:25:37.420Z,24.60
2022-08-07T05:28:20.012Z,25.50
2022-08-07T05:30:48.255Z,26.40
2022-08-07T05:33:15.600Z,27.00
2022-08-07T05:35:45.569Z,27.30
2022-08-07T05:38:59.634Z,27.50
2022-08-07T05:41:02.541Z,27.80
2022-08-07T05:43:49.738Z,27.10
2022-08-07T05:46:26.570Z,27.60
2022-08-07T05:48:59.313Z,29.00
2022-08-07T05:51:31.460Z,28.70
2022-08-07T05:54:12.273Z,28.30
2022-08-07T05:56:47.999Z,28.60
2022-08-07T05:59:19.354Z,28.10
2022-08-07T06:01:48.608Z,28.70
2022-08-07T06:04:17.440Z,28.70
2022-08-07T06:06:46.204Z,28.60
2022-08-07T06:09:15.149Z,28.00
2022-08-07T06:11:42.747Z,28.20
2022-08-07T06:14:12.293Z,28.00
2022-08-07T06:16:43.897Z,28.30
2022-08-07T06:19:17.616Z,28.00
2022-08-07T06:22:15.936Z,28.80
2022-08-07T06:24:45.762Z,29.60
2022-08-07T06:27:22.740Z,29.70
2022-08-07T06:30:07.662Z,29.40
2022-08-07T06:32:54.288Z,30.00
2022-08-07T06:35:20.955Z,29.90
2022-08-07T06:37:49.397Z,31.10
2022-08-07T06:40:21.347Z,31.50
2022-08-07T06:42:48.796Z,31.10
2022-08-07T06:45:18.194Z,31.20
2022-08-07T06:47:57.584Z,31.80
2022-08-07T06:50:26.378Z,32.60
2022-08-07T06:52:53.984Z,33.20
2022-08-07T06:55:53.489Z,33.50
2022-08-07T06:58:16.939Z,33.60
2022-08-07T07:00:53.111Z,32.90
2022-08-07T07:03:26.413Z,32.90
2022-08-07T07:06:10.992Z,32.10
2022-08-07T07:08:39.964Z,30.20
2022-08-07T07:12:10.666Z,28.00
2022-08-07T07:14:02.437Z,27.50
2022-08-07T07:16:45.190Z,27.10
2022-08-07T07:19:55.895Z,27.60
2022-08-07T07:22:33.755Z,28.10
2022-08-07T07:24:58.518Z,28.40
2022-08-07T07:27:56.346Z,28.00
2022-08-07T07:30:38.537Z,28.00
2022-08-07T07:33:06.497Z,27.90
2022-08-07T07:35:43.718Z,27.90
2022-08-07T07:38:23.356Z,28.50
2022-08-07T07:40:50.643Z,28.40
2022-08-07T07:43:18.712Z,29.20
2022-08-07T07:46:40.373Z,28.90
2022-08-07T07:48:41.988Z,27.90
2022-08-07T07:51:13.210Z,27.20
2022-08-07T07:53:52.647Z,27.20
2022-08-07T07:56:30.265Z,27.60
2022-08-07T07:58:59.772Z,29.00
2022-08-07T08:02:01.572Z,29.10
2022-08-07T08:04:15.123Z,29.00
2022-08-07T08:06:51.960Z,27.10
2022-08-07T08:09:22.789Z,26.90
2022-08-07T08:12:01.613Z,26.60
2022-08-07T08:14:31.242Z,27.30
2022-08-07T08:17:55.600Z,27.80
2022-08-07T08:20:19.948Z,28.10
2022-08-07T08:22:56.013Z,27.60
2022-08-07T08:25:49.262Z,27.60
2022-08-07T08:28:24.010Z,27.80
2022-08-07T08:31:06.381Z,28.10
2022-08-07T08:33:34.274Z,27.80
2022-08-07T08:36:02.495Z,27.80
2022-08-07T08:38:38.599Z,27.50
2022-08-07T08:41:18.761Z,27.70
2022-08-07T08:43:59.326Z,27.00
2022-08-07T08:46:44.913Z,26.80
2022-08-07T08:49:32.872Z,26.50
2022-08-07T08:52:14.480Z,26.30
2022-08-07T08:54:48.261Z,26.20
2022-08-07T08:57:25.891Z,26.80
2022-08-07T09:00:11.938Z,27.50
2022-08-07T09:02:46.273Z,26.90
2022-08-07T09:05:36.755Z,26.80
2022-08-07T09:08:24.085Z,27.20
2022-08-07T09:10:55.408Z,27.80
2022-08-07T09:13:36.854Z,27.90
2022-08-07T09:16:24.603Z,27.90
2022-08-07T09:19:52.128Z,27.80
2022-08-07T09:24:28.983Z,27.90
2022-08-07T09:25:00.400Z,27.40
2022-08-07T09:28:00.353Z,27.50
2022-08-07T09:30:49.704Z,27.30
2022-08-07T09:33:52.627Z,27.40
2022-08-07T09:36:37.072Z,26.50
2022-08-07T09:39:18.013Z,26.80
2022-08-07T09:42:17.263Z,27.00
2022-08-07T09:47:49.517Z,26.90
2022-08-07T09:48:01.523Z,26.60
2022-08-07T09:50:46.414Z,26.60
2022-08-07T09:53:15.499Z,26.90
2022-08-07T09:56:04.380Z,26.20
2022-08-07T09:58:43.738Z,26.10
2022-08-07T10:01:50.457Z,26.60
2022-08-07T10:04:38.625Z,26.30
2022-08-07T10:07:24.415Z,26.20
2022-08-07T10:10:21.442Z,26.20
2022-08-07T10:13:54.825Z,26.50
2022-08-07T10:16:10.835Z,26.00
2022-08-07T10:19:00.766Z,25.50
2022-08-07T10:22:14.698Z,25.30
2022-08-07T10:24:46.189Z,25.10
2022-08-07T10:27:46.252Z,25.50
2022-08-07T10:30:18.854Z,25.50
2022-08-07T10:33:05.775Z,25.50
2022-08-07T10:36:05.634Z,25.70
2022-08-07T10:38:49.169Z,25.70
2022-08-07T10:41:52.145Z,26.10
2022-08-07T10:44:38.597Z,26.30
2022-08-07T10:47:14.246Z,26.30
2022-08-07T10:49:49.373Z,26.10
2022-08-07T10:52:20.949Z,26.00
2022-08-07T10:55:27.040Z,26.30
2022-08-07T10:58:15.490Z,26.70
2022-08-07T11:00:56.274Z,26.40
2022-08-07T11:03:37.607Z,26.40
2022-08-07T11:06:42.103Z,26.60
2022-08-07T11:10:09.132Z,26.70
2022-08-07T11:12:14.029Z,26.70
2022-08-07T11:15:17.591Z,26.70
2022-08-07T11:18:03.685Z,27.20
2022-08-07T11:20:31.174Z,27.70
2022-08-07T11:23:01.547Z,27.60
2022-08-07T11:25:28.271Z,27.40
2022-08-07T11:28:02.979Z,27.50
2022-08-07T11:30:41.357Z,26.90
2022-08-07T11:33:16.915Z,26.90
2022-08-07T11:35:59.203Z,27.00
2022-08-07T11:38:28.438Z,27.10
2022-08-07T11:40:57.640Z,27.40
2022-08-07T11:43:54.744Z,27.30
2022-08-07T11:46:18.877Z,27.50
2022-08-07T11:49:27.730Z,27.80
2022-08-07T11:51:41.270Z,27.50
2022-08-07T11:54:11.916Z,27.70
2022-08-07T11:56:52.320Z,28.10
2022-08-07T12:00:12.561Z,28.00
2022-08-07T12:02:17.686Z,28.10
2022-08-07T12:05:15.304Z,27.90
2022-08-07T12:08:04.175Z,28.10
2022-08-07T12:10:41.871Z,28.50
2022-08-07T12:13:17.114Z,28.10
2022-08-07T12:16:06.643Z,28.10
2022-08-07T12:18:45.713Z,27.60
2022-08-07T12:21:14.974Z,27.80
2022-08-07T12:24:06.020Z,27.80
2022-08-07T12:26:46.990Z,27.80
2022-08-07T12:29:38.287Z,28.40
2022-08-07T12:32:13.150Z,28.50
2022-08-07T12:34:40.886Z,28.00
2022-08-07T12:37:16.802Z,28.00
2022-08-07T12:39:51.634Z,27.80
2022-08-07T12:42:22.851Z,27.20
2022-08-07T12:44:55.197Z,26.90
2022-08-07T12:47:27.012Z,26.60
2022-08-07T12:50:04.919Z,26.70
2022-08-07T12:52:34.719Z,26.80
2022-08-07T12:55:09.728Z,26.60
2022-08-07T12:58:01.066Z,26.80
2022-08-07T13:00:41.636Z,26.90
2022-08-07T13:03:22.958Z,26.90
2022-08-07T13:06:21.922Z,26.50
2022-08-07T13:10:10.113Z,26.60
2022-08-07T13:12:13.407Z,26.90
2022-08-07T13:14:58.938Z,27.00
2022-08-07T13:18:03.446Z,27.40
2022-08-07T13:20:34.282Z,27.30
2022-08-07T13:23:59.853Z,27.20
2022-08-07T13:25:54.208Z,27.30
2022-08-07T13:28:43.875Z,27.10
2022-08-07T13:31:14.617Z,27.30
2022-08-07T13:34:32.621Z,27.40
2022-08-07T13:36:35.372Z,27.50
2022-08-07T13:39:49.322Z,27.10
2022-08-07T13:42:04.420Z,27.00
2022-08-07T13:44:37.046Z,26.90
2022-08-07T13:47:09.325Z,26.80
2022-08-07T13:50:34.005Z,26.60
2022-08-07T13:52:36.273Z,26.80
2022-08-07T13:55:19.236Z,27.10
2022-08-07T13:58:01.945Z,27.10
2022-08-07T14:00:34.505Z,27.50
2022-08-07T14:03:07.248Z,27.40
2022-08-07T14:05:38.258Z,27.30
2022-08-07T14:08:07.208Z,27.30
2022-08-07T14:10:42.242Z,27.20
2022-08-07T14:13:13.173Z,27.00
2022-08-07T14:15:44.243Z,26.80
2022-08-07T14:18:29.646Z,26.80
2022-08-07T14:22:01.876Z,26.60
2022-08-07T14:24:15.476Z,26.80
2022-08-07T14:26:51.220Z,26.70
2022-08-07T14:30:09.775Z,26.80
2022-08-07T14:32:08.037Z,26.90
2022-08-07T14:34:46.224Z,26.90
2022-08-07T14:37:16.314Z,27.00
2022-08-07T14:40:17.031Z,27.00
2022-08-07T14:42:33.838Z,27.10
2022-08-07T14:45:21.751Z,27.10
2022-08-07T14:47:50.379Z,27.20
2022-08-07T14:50:22.624Z,27.50
2022-08-07T14:52:51.744Z,27.60
2022-08-07T14:55:19.777Z,27.70
2022-08-07T14:57:58.765Z,27.90
2022-08-07T15:00:34.548Z,27.50
2022-08-07T15:03:15.629Z,27.40
2022-08-07T15:05:54.616Z,27.50
2022-08-07T15:08:50.006Z,27.60
2022-08-07T15:11:53.594Z,27.60
2022-08-07T15:14:16.340Z,27.70
2022-08-07T15:16:54.845Z,28.00
2022-08-07T15:20:31.284Z,27.50
2022-08-07T15:28:30.782Z,27.80
2022-08-07T15:30:34.011Z,27.90
2022-08-07T15:38:59.208Z,27.80
2022-08-07T15:42:45.898Z,27.80
2022-08-07T15:44:15.144Z,27.50
2022-08-07T15:46:51.650Z,27.70
2022-08-07T15:52:10.706Z,27.50
2022-08-07T15:54:41.840Z,27.40
2022-08-07T15:57:39.308Z,27.30
2022-08-07T15:59:59.374Z,27.40
2022-08-07T16:02:32.394Z,27.10
2022-08-07T16:05:00.939Z,27.10
2022-08-07T16:08:31.234Z,27.10
2022-08-07T16:10:18.418Z,27.20
2022-08-07T16:13:04.770Z,27.00
2022-08-07T16:15:57.561Z,27.00
2022-08-07T16:18:50.901Z,27.00
2022-08-07T16:22:01.235Z,26.80
2022-08-07T16:24:34.316Z,26.70
2022-08-07T16:27:02.016Z,26.50
2022-08-07T16:30:11.240Z,26.60
2022-08-07T16:32:58.550Z,26.50
2022-08-07T16:35:57.062Z,26.50
2022-08-07T16:38:29.580Z,26.50
2022-08-07T16:41:25.628Z,26.50
2022-08-07T16:44:47.377Z,26.40
2022-08-07T16:47:08.766Z,26.50
2022-08-07T16:50:20.024Z,26.40
2022-08-07T16:54:01.711Z,26.30
2022-08-07T16:56:05.135Z,26.30
2022-08-07T16:58:54.241Z,26.30
2022-08-07T17:01:27.780Z,26.00
2022-08-07T17:04:10.239Z,26.10
2022-08-07T17:06:45.776Z,26.00
2022-08-07T17:10:06.420Z,26.00
2022-08-07T17:12:38.761Z,25.80
2022-08-07T17:15:15.497Z,25.80
2022-08-07T17:17:49.059Z,25.80
2022-08-07T17:20:30.901Z,25.60
2022-08-07T17:23:16.679Z,25.60
2022-08-07T17:26:01.791Z,25.60
2022-08-07T17:28:49.946Z,25.40
2022-08-07T17:31:23.308Z,25.30
2022-08-07T17:34:15.313Z,25.20
2022-08-07T17:36:57.710Z,25.20
2022-08-07T17:39:57.883Z,25.20
2022-08-07T17:42:27.829Z,25.20
2022-08-07T17:44:58.381Z,25.20
2022-08-07T17:47:37.955Z,25.20
2022-08-07T17:50:16.520Z,25.10
2022-08-07T17:53:55.720Z,25.00
2022-08-07T17:56:12.310Z,25.00
2022-08-07T17:58:56.834Z,24.80
2022-08-07T18:01:48.471Z,24.80
2022-08-07T18:04:31.118Z,24.70
2022-08-07T18:07:20.816Z,24.60
2022-08-07T18:10:05.643Z,24.60
2022-08-07T18:12:41.809Z,24.50
2022-08-07T18:15:11.418Z,24.40
2022-08-07T18:18:36.920Z,24.30
2022-08-07T18:21:06.940Z,24.30
2022-08-07T18:23:43.611Z,24.20
2022-08-07T18:26:18.147Z,24.10
2022-08-07T18:28:58.609Z,23.90
2022-08-07T18:31:40.911Z,23.70
2022-08-07T18:34:40.925Z,23.60
2022-08-07T18:38:56.828Z,23.50
2022-08-07T18:40:42.732Z,23.30
2022-08-07T18:43:36.976Z,23.20
2022-08-07T18:46:27.013Z,23.00
2022-08-07T18:50:05.880Z,22.80
2022-08-07T18:52:33.817Z,22.70
2022-08-07T18:55:41.584Z,22.50
2022-08-07T18:58:15.138Z,22.40
2022-08-07T19:00:55.120Z,22.20
2022-08-07T19:03:38.230Z,22.00
2022-08-07T19:06:05.924Z,21.70
2022-08-07T19:08:32.615Z,21.50
2022-08-07T19:11:15.486Z,21.30
2022-08-07T19:14:08.015Z,21.10
2022-08-07T19:17:04.666Z,20.90
2022-08-07T19:19:38.421Z,20.70
2022-08-07T19:22:30.990Z,20.30
2022-08-07T19:25:05.462Z,20.10
2022-08-07T19:28:29.161Z,19.80
2022-08-07T19:30:58.781Z,19.60
2022-08-07T19:33:15.714Z,19.30
2022-08-07T19:35:46.834Z,19.10
2022-08-07T19:38:16.781Z,19.00
2022-08-07T19:40:49.652Z,18.90
2022-08-07T19:43:43.375Z,18.70
2022-08-07T19:46:11.255Z,18.50
2022-08-07T19:48:43.071Z,18.20
2022-08-07T19:51:20.434Z,18.10
2022-08-07T19:54:30.985Z,17.90
2022-08-07T19:57:51.018Z,17.80
2022-08-07T19:59:41.709Z,17.70
2022-08-07T20:02:15.478Z,17.50
2022-08-07T20:04:49.109Z,17.30
2022-08-07T20:07:23.870Z,17.20
2022-08-07T20:10:36.214Z,17.20
2022-08-07T20:12:53.436Z,17.00
2022-08-07T20:15:24.461Z,16.90
2022-08-07T20:18:03.434Z,16.80
2022-08-07T20:20:31.525Z,16.70
2022-08-07T20:23:01.365Z,16.60
2022-08-07T20:25:40.545Z,16.50
2022-08-07T20:28:17.946Z,16.50
2022-08-07T20:30:47.088Z,16.30
2022-08-07T20:33:36.700Z,16.20
2022-08-07T20:36:05.330Z,16.10
2022-08-07T20:38:34.008Z,16.00
2022-08-07T20:41:05.289Z,15.90
2022-08-07T20:43:33.835Z,15.90
2022-08-07T20:46:26.189Z,15.80
2022-08-07T20:48:57.951Z,15.70
2022-08-07T20:51:40.604Z,15.60
2022-08-07T20:54:29.346Z,15.50
2022-08-07T20:57:00.168Z,15.40
2022-08-07T21:00:08.178Z,15.30
2022-08-07T21:02:38.301Z,15.30
2022-08-07T21:05:16.640Z,15.20
2022-08-07T21:07:49.546Z,15.20
2022-08-07T21:10:29.681Z,15.00
2022-08-07T21:12:59.699Z,15.00
2022-08-07T21:15:58.498Z,14.90
2022-08-07T21:18:27.969Z,14.90
2022-08-07T21:20:57.480Z,14.90
2022-08-07T21:23:31.708Z,14.80
2022-08-07T21:25:58.497Z,14.70
2022-08-07T21:28:48.681Z,14.70
2022-08-07T21:31:49.523Z,14.70
2022-08-07T21:34:21.276Z,14.50
2022-08-07T21:36:59.201Z,14.40
2022-08-07T21:39:45.915Z,14.30
2022-08-07T21:45:24.396Z,14.20
2022-08-07T21:47:57.348Z,14.10
2022-08-07T21:50:34.294Z,14.10
2022-08-07T21:53:07.790Z,14.10
2022-08-07T21:55:44.910Z,14.00
2022-08-07T21:58:29.918Z,14.00
2022-08-07T22:00:59.611Z,14.00
2022-08-07T22:03:34.394Z,13.90
2022-08-07T22:06:28.928Z,14.00
2022-08-07T22:08:55.399Z,13.90
2022-08-07T22:11:24.392Z,13.90
2022-08-07T22:13:58.606Z,13.90
2022-08-07T22:16:42.712Z,13.90
2022-08-07T22:19:29.752Z,13.80
2022-08-07T22:22:10.804Z,13.80
2022-08-07T22:24:52.013Z,13.70
2022-08-07T22:27:34.119Z,13.70
2022-08-07T22:30:12.709Z,13.70
2022-08-07T22:32:45.974Z,13.60
2022-08-07T22:35:15.551Z,13.60
2022-08-07T22:38:04.764Z,13.40
2022-08-07T22:40:41.191Z,13.40
2022-08-07T22:43:10.836Z,13.40
2022-08-07T22:46:40.925Z,13.30
2022-08-07T22:49:01.287Z,13.30
2022-08-07T22:51:49.021Z,13.20
2022-08-07T22:54:33.504Z,13.30
2022-08-07T22:57:17.004Z,13.30
2022-08-07T22:59:46.671Z,13.30
2022-08-07T23:02:35.015Z,13.20
2022-08-07T23:06:08.273Z,13.20
2022-08-07T23:08:24.338Z,13.10
2022-08-07T23:10:51.265Z,13.10
2022-08-07T23:13:29.518Z,13.10
2022-08-07T23:16:44.711Z,13.10
2022-08-07T23:19:51.983Z,12.90
2022-08-07T23:22:37.490Z,12.90
2022-08-07T23:25:16.080Z,12.90
2022-08-07T23:28:22.500Z,12.70
2022-08-07T23:30:42.025Z,12.70
2022-08-07T23:34:20.042Z,12.70
2022-08-07T23:36:28.844Z,12.70
2022-08-07T23:39:08.705Z,12.70
2022-08-07T23:41:47.650Z,12.60
2022-08-07T23:44:32.471Z,12.60
2022-08-07T23:47:00.947Z,12.40
2022-08-07T23:49:50.223Z,12.40
2022-08-07T23:52:59.666Z,12.40
2022-08-07T23:55:52.233Z,12.40
2022-08-07T23:58:50.041Z,12.40
